createdAt,value
2023-05-23T00:04:39.784Z,100662.63
2023-05-23T00:09:42.135Z,100660.19
2023-05-23T00:14:45.775Z,100650.63
2023-05-23T00:19:48.051Z,100649.47
2023-05-23T00:24:50.595Z,100655.53
2023-05-23T00:29:54.129Z,100656.00
2023-05-23T00:34:56.490Z,100649.41
2023-05-23T00:39:58.869Z,100644.41
2023-05-23T00:45:02.402Z,100646.22
2023-05-23T00:50:05.030Z,100641.06
2023-05-23T00:55:08.356Z,100636.78
2023-05-23T01:00:13.395Z,100632.50
2023-05-23T01:05:16.911Z,100634.50
2023-05-23T01:10:21.709Z,100630.09
2023-05-23T01:15:32.465Z,100625.66
2023-05-23T01:20:39.106Z,100629.28
2023-05-23T01:26:13.984Z,100627.31
2023-05-23T01:31:18.725Z,100633.34
2023-05-23T01:36:21.273Z,100660.50
2023-05-23T01:41:23.657Z,100640.69
2023-05-23T01:46:28.764Z,100630.56
2023-05-23T01:51:31.585Z,100634.91
2023-05-23T01:56:34.293Z,100623.63
2023-05-23T02:01:38.137Z,100617.97
2023-05-23T02:06:40.303Z,100619.63
2023-05-23T02:11:42.480Z,100605.13
2023-05-23T02:16:46.074Z,100604.38
2023-05-23T02:21:48.517Z,100606.41
2023-05-23T02:26:50.669Z,100605.66
2023-05-23T02:31:54.121Z,100602.25
2023-05-23T02:36:55.939Z,100593.09
2023-05-23T02:41:58.437Z,100591.19
2023-05-23T02:47:02.025Z,100601.75
2023-05-23T02:52:04.344Z,100623.84
2023-05-23T02:57:06.787Z,100617.50
2023-05-23T03:02:10.063Z,100614.03
2023-05-23T03:07:20.582Z,100604.50
2023-05-23T03:12:28.090Z,100582.13
2023-05-23T03:17:31.645Z,100581.34
2023-05-23T03:22:34.176Z,100567.44
2023-05-23T03:27:36.292Z,100555.31
2023-05-23T03:32:40.461Z,100551.47
2023-05-23T03:37:42.719Z,100572.81
2023-05-23T03:42:45.044Z,100573.06
2023-05-23T03:47:48.706Z,100573.78
2023-05-23T03:52:51.462Z,100576.81
2023-05-23T03:57:53.521Z,100575.19
2023-05-23T04:02:57.159Z,100596.66
2023-05-23T04:07:59.444Z,100603.22
2023-05-23T04:13:01.714Z,100607.16
2023-05-23T04:18:05.347Z,100598.59
2023-05-23T04:23:07.556Z,100601.19
2023-05-23T04:28:09.804Z,100602.84
2023-05-23T04:33:13.654Z,100608.59
2023-05-23T04:38:15.706Z,100612.09
2023-05-23T04:43:17.716Z,100610.03
2023-05-23T04:48:21.167Z,100604.66
2023-05-23T04:53:23.314Z,100602.72
2023-05-23T04:58:26.321Z,100599.00
2023-05-23T05:03:29.701Z,100579.94
2023-05-23T05:08:31.625Z,100579.25
2023-05-23T05:13:33.375Z,100602.50
2023-05-23T05:18:37.361Z,100589.72
2023-05-23T05:23:39.132Z,100594.88
2023-05-23T05:28:40.968Z,100599.56
2023-05-23T05:33:44.565Z,100592.25
2023-05-23T05:38:46.848Z,100595.44
2023-05-23T05:43:49.330Z,100596.31
2023-05-23T05:48:52.665Z,100596.50
2023-05-23T05:53:54.749Z,100595.25
2023-05-23T05:58:56.604Z,100587.13
2023-05-23T06:04:00.265Z,100589.16
2023-05-23T06:09:02.280Z,100598.75
2023-05-23T06:14:04.263Z,100601.78
2023-05-23T06:19:07.459Z,100602.38
2023-05-23T06:24:10.109Z,100607.75
2023-05-23T06:29:12.803Z,100614.06
2023-05-23T06:34:16.811Z,100614.88
2023-05-23T06:39:19.020Z,100620.97
2023-05-23T06:44:21.287Z,100619.59
2023-05-23T06:49:25.304Z,100629.94
2023-05-23T06:54:27.719Z,100620.16
2023-05-23T06:59:29.779Z,100610.22
2023-05-23T07:04:33.453Z,100626.50
2023-05-23T07:09:35.714Z,100624.91
2023-05-23T07:14:38.053Z,100623.00
2023-05-23T07:19:41.194Z,100624.16
2023-05-23T07:24:43.261Z,100622.22
2023-05-23T07:29:45.461Z,100626.00
2023-05-23T07:34:48.832Z,100624.09
2023-05-23T07:39:51.106Z,100626.94
2023-05-23T07:44:53.993Z,100629.09
2023-05-23T07:49:57.534Z,100625.00
2023-05-23T07:55:00.153Z,100633.72
2023-05-23T08:00:02.336Z,100642.72
2023-05-23T08:05:06.662Z,100638.28
2023-05-23T08:10:09.576Z,100638.97
2023-05-23T08:15:11.834Z,100649.00
2023-05-23T08:20:15.351Z,100656.25
2023-05-23T08:25:17.421Z,100657.00
2023-05-23T08:30:19.576Z,100666.38
2023-05-23T08:35:23.388Z,100668.44
2023-05-23T08:40:27.167Z,100664.47
2023-05-23T08:45:29.451Z,100677.63
2023-05-23T08:50:32.820Z,100677.97
2023-05-23T08:55:35.238Z,100686.38
2023-05-23T09:00:37.215Z,100681.44
2023-05-23T09:05:41.771Z,100684.44
2023-05-23T09:10:43.889Z,100695.34
2023-05-23T09:15:57.541Z,100697.53
2023-05-23T09:21:01.155Z,100705.31
2023-05-23T09:26:04.217Z,100702.22
2023-05-23T09:31:08.109Z,100708.53
2023-05-23T09:36:11.669Z,100700.06
2023-05-23T09:41:13.635Z,100700.84
2023-05-23T09:46:15.950Z,100714.31
2023-05-23T09:51:21.989Z,100715.13
2023-05-23T09:56:26.803Z,100727.34
2023-05-23T10:01:32.535Z,100738.09
2023-05-23T10:06:41.782Z,100732.78
2023-05-23T10:12:16.417Z,100729.69
2023-05-23T10:17:21.009Z,100737.81
2023-05-23T10:22:24.979Z,100745.66
2023-05-23T10:27:28.073Z,100748.34
2023-05-23T10:32:31.641Z,100735.25
2023-05-23T10:37:40.311Z,100747.34
2023-05-23T10:42:49.870Z,100747.72
2023-05-23T10:47:52.989Z,100741.91
2023-05-23T10:52:56.258Z,100753.59
2023-05-23T10:58:11.676Z,100755.97
2023-05-23T11:03:14.338Z,100758.91
2023-05-23T11:08:20.474Z,100754.72
2023-05-23T11:13:23.436Z,100754.72
2023-05-23T11:18:27.940Z,100762.84
2023-05-23T11:23:42.169Z,100753.19
2023-05-23T11:28:56.733Z,100756.16
2023-05-23T11:33:59.127Z,100756.56
2023-05-23T11:39:04.389Z,100754.66
2023-05-23T11:44:12.041Z,100760.47
2023-05-23T11:49:14.346Z,100760.03
2023-05-23T11:54:17.730Z,100760.63
2023-05-23T11:59:20.058Z,100769.44
2023-05-23T12:04:22.801Z,100774.75
2023-05-23T12:09:26.619Z,100777.78
2023-05-23T12:14:29.525Z,100777.00
2023-05-23T12:19:32.311Z,100777.28
2023-05-23T12:24:35.733Z,100775.03
2023-05-23T12:29:37.841Z,100777.56
2023-05-23T12:34:41.693Z,100783.34
2023-05-23T12:39:44.815Z,100793.91
2023-05-23T12:44:51.651Z,100792.91
2023-05-23T12:49:53.586Z,100788.34
2023-05-23T12:54:56.773Z,100790.41
2023-05-23T13:00:00.092Z,100793.53
2023-05-23T13:05:02.197Z,100789.25
2023-05-23T13:10:06.924Z,100793.28
2023-05-23T13:15:10.045Z,100786.91
2023-05-23T13:20:12.567Z,100788.03
2023-05-23T13:25:16.158Z,100783.56
2023-05-23T13:30:19.503Z,100795.41
2023-05-23T13:35:22.888Z,100799.44
2023-05-23T13:40:27.964Z,100798.13
2023-05-23T13:45:31.254Z,100810.88
2023-05-23T13:50:34.175Z,100816.19
2023-05-23T13:55:38.925Z,100818.31
2023-05-23T14:00:41.771Z,100815.06
2023-05-23T14:05:45.093Z,100816.00
2023-05-23T14:10:49.469Z,100835.84
2023-05-23T14:15:52.292Z,100844.09
2023-05-23T14:20:55.118Z,100838.63
2023-05-23T14:26:00.014Z,100849.84
2023-05-23T14:31:03.351Z,100844.53
2023-05-23T14:36:07.182Z,100847.97
2023-05-23T14:41:10.839Z,100842.44
2023-05-23T14:46:13.067Z,100863.38
2023-05-23T14:51:26.872Z,100874.22
2023-05-23T14:56:38.434Z,100885.66
2023-05-23T15:01:41.047Z,100894.13
2023-05-23T15:06:43.463Z,100904.16
2023-05-23T15:11:47.233Z,100915.66
2023-05-23T15:16:49.509Z,100921.06
2023-05-23T15:21:52.043Z,100927.84
2023-05-23T15:26:56.819Z,100917.09
2023-05-23T15:32:02.382Z,100941.91
2023-05-23T15:37:04.642Z,100943.75
2023-05-23T15:42:08.289Z,100941.06
2023-05-23T15:47:10.510Z,100951.78
2023-05-23T15:52:12.541Z,100953.13
2023-05-23T15:57:15.874Z,100944.59
2023-05-23T16:02:17.946Z,100955.25
2023-05-23T16:07:19.806Z,100958.03
2023-05-23T16:12:22.911Z,100965.19
2023-05-23T16:17:25.033Z,100960.84
2023-05-23T16:22:26.795Z,100962.03
2023-05-23T16:27:30.371Z,100961.75
2023-05-23T16:32:32.435Z,100971.66
2023-05-23T16:37:34.187Z,100978.25
2023-05-23T16:42:38.298Z,100989.06
2023-05-23T16:47:40.522Z,100996.47
2023-05-23T16:52:43.075Z,101006.50
2023-05-23T16:57:46.191Z,101012.06
2023-05-23T17:02:48.572Z,101020.25
2023-05-23T17:07:50.388Z,101024.09
2023-05-23T17:12:53.705Z,101017.88
2023-05-23T17:17:56.114Z,101032.19
2023-05-23T17:22:57.894Z,101032.13
2023-05-23T17:28:01.534Z,101037.66
2023-05-23T17:33:04.097Z,101043.91
2023-05-23T17:38:06.586Z,101036.75
2023-05-23T17:43:10.304Z,101051.03
2023-05-23T17:48:12.093Z,101061.78
2023-05-23T17:53:14.085Z,101058.97
2023-05-23T17:58:17.423Z,101065.22
2023-05-23T18:03:19.180Z,101056.38
2023-05-23T18:08:20.938Z,101056.22
2023-05-23T18:13:24.717Z,101072.16
2023-05-23T18:18:26.898Z,101075.63
2023-05-23T18:23:29.248Z,101088.84
2023-05-23T18:28:32.816Z,101089.81
2023-05-23T18:33:34.649Z,101082.03
2023-05-23T18:38:36.800Z,101105.72
2023-05-23T18:43:39.940Z,101109.34
2023-05-23T18:48:42.689Z,101113.13
2023-05-23T18:53:45.492Z,101113.16
2023-05-23T18:58:50.313Z,101126.47
2023-05-23T19:03:52.781Z,101136.34
2023-05-23T19:08:54.971Z,101138.16
2023-05-23T19:13:59.426Z,101150.53
2023-05-23T19:19:01.656Z,101158.56
2023-05-23T19:24:03.887Z,101159.50
2023-05-23T19:29:07.533Z,101171.91
2023-05-23T19:34:09.858Z,101185.22
2023-05-23T19:39:12.016Z,101187.09
2023-05-23T19:44:15.635Z,101195.03
2023-05-23T19:49:17.780Z,101200.22
2023-05-23T19:54:20.147Z,101207.44
2023-05-23T19:59:23.559Z,101219.94
2023-05-23T20:04:25.771Z,101219.13
2023-05-23T20:09:27.464Z,101227.31
2023-05-23T20:14:31.337Z,101229.28
2023-05-23T20:19:33.489Z,101240.94
2023-05-23T20:24:35.706Z,101248.13
2023-05-23T20:29:39.241Z,101257.03
2023-05-23T20:34:41.376Z,101261.59
2023-05-23T20:39:43.129Z,101264.28
2023-05-23T20:44:46.810Z,101266.13
2023-05-23T20:49:48.853Z,101268.84
2023-05-23T20:54:51.243Z,101270.66
2023-05-23T20:59:54.713Z,101283.16
2023-05-23T21:04:57.004Z,101272.50
2023-05-23T21:09:59.227Z,101297.38
2023-05-23T21:15:03.147Z,101293.00
2023-05-23T21:20:06.445Z,101297.44
2023-05-23T21:25:09.263Z,101297.53
2023-05-23T21:30:13.817Z,101302.91
2023-05-23T21:35:16.550Z,101302.97
2023-05-23T21:40:19.204Z,101310.94
2023-05-23T21:45:22.689Z,101312.72
2023-05-23T21:50:24.588Z,101313.66
2023-05-23T21:55:27.022Z,101309.19
2023-05-23T22:00:30.551Z,101312.81
2023-05-23T22:05:32.704Z,101315.47
2023-05-23T22:10:35.007Z,101319.03
2023-05-23T22:15:38.608Z,101317.28
2023-05-23T22:20:40.775Z,101323.50
2023-05-23T22:25:43.268Z,101313.78
2023-05-23T22:30:46.802Z,101315.56
2023-05-23T22:35:49.206Z,101323.56
2023-05-23T22:40:51.332Z,101324.50
2023-05-23T22:45:54.799Z,101328.03
2023-05-23T22:50:56.815Z,101329.81
2023-05-23T22:55:58.974Z,101322.72
2023-05-23T23:01:02.190Z,101328.03
2023-05-23T23:06:05.018Z,101335.09
2023-05-23T23:11:06.787Z,101326.28
2023-05-23T23:16:10.353Z,101338.66
2023-05-23T23:21:12.317Z,101325.41
2023-05-23T23:26:14.413Z,101334.22
2023-05-23T23:31:17.971Z,101324.50
2023-05-23T23:36:20.570Z,101336.91
2023-05-23T23:41:22.732Z,101333.38
2023-05-23T23:46:25.838Z,101333.38
2023-05-23T23:51:27.874Z,101322.75
2023-05-23T23:56:29.998Z,101327.16
